x

Monterey - 27nm Wnw Of Monterey, Ca (46042) Wave Buoy

12:50am - Tue 27th Sep 2016 All times are PDT. -7 hours from GMT.

  • Sig Wave height 5.2ft
  • Swell Direction
  • Peak Period 10s
  • Average Period 8s
  • Wind
    4mph, 7mph gusts
  • Sea Temp 60°f
  • Air Temp 63°f
  • Sea Pressure 1013.3mb
  • Monterey - 27nm Wnw Of Monterey, Ca
  • Monterey - 27nm Wnw Of Monterey, Ca

More Historic Weather Station data

Upgrade to MSW Pro to gain access to the past 30 days of data for over 8000 Wavebouys and Weather Stations around the globe.

Join Pro

Comparision Forecast

View Surf forecast
   
Tue 09/27 12:50am 5ft 10s 8s 4 7 mph 1013.3mb 60f 63f
Mon 09/26 11:50pm 5ft 10s 8s 7 9 mph 1013.4mb 60f 64f
10:50pm 5.5ft 10s 9s 9 11 mph 1013.3mb 61f 64f
9:50pm 5ft 10s 9s 9 11 mph 1013.3mb 61f 63f
8:50pm 5ft 9s 9s 11
mph
1013.2mb 61f 64f
7:50pm 4.5ft 15s 9s 9 11 mph 1012.8mb 62f 65f
6:50pm 4.5ft 11s 8s 9
mph
1012.9mb 62f 65f
5:50pm 4.5ft 11s 8s 4 7 mph 1013.1mb 62f 65f
4:50pm 4.5ft 11s 7s 7 9 mph 1013.2mb 62f 65f
3:50pm 4.5ft 15s 8s 7 9 mph 1013.9mb 62f 65f
2:50pm 4.5ft 15s 8s 7
mph
1013.9mb 63f 65f
1:50pm 4.5ft 11s 8s 9
mph
1014.5mb 62f 64f
12:50pm 5ft 15s  -  2 4 mph 1015mb 61f 65f
11:50am 5ft 15s 7s 7 9 mph 1015.3mb 61f 65f
10:50am 5ft 15s 7s 9 11 mph 1015.4mb 60f 64f
9:50am 5.5ft 15s 8s 9 11 mph 1015.4mb 59f 64f
8:50am 5ft 15s 8s 11 13 mph 1015.1mb 59f 64f
7:50am 5ft 15s 8s 4
mph
1014.9mb 58f 65f
6:50am 5ft 8s 8s 2 4 mph 1014.6mb 59f 63f
5:50am 5ft 15s 8s  -  2 mph 1014.2mb 59f 62f
4:50am 6ft 15s 8s 2 4 mph 1013.8mb 59f 61f
3:50am 6ft 8s 8s  -  2 mph 1013.7mb 58f 62f
2:50am 6ft 8s 8s 2
mph
1014.4mb 59f 62f
1:50am 6ft 9s 8s 2 4 mph 1014.5mb 60f 64f
12:50am 6ft 10s 8s 4
mph
1014.7mb 59f 62f
Sun 09/25 11:50pm 6ft 8s 8s 4
mph
1014.9mb 59f 62f
10:50pm 6ft 10s 8s 2 4 mph 1015.1mb 60f 64f
9:50pm 6ft 9s 8s  -  4 mph 1015.1mb 61f 63f
8:50pm 6ft 9s 8s 7 9 mph 1015mb 61f 63f
7:50pm 6.5ft 10s 8s 2
mph
1014.9mb 60f 62f
6:50pm 6.5ft 10s 8s 9
mph
1014.6mb 60f 63f
5:50pm 6.5ft 11s 8s 7 9 mph 1014.7mb 60f 64f
4:50pm 7ft 10s 8s 4 7 mph 1015.2mb 60f 64f
3:50pm 7ft 8s 8s 2 4 mph 1015.8mb 58f 63f
2:50pm 7ft 9s 7s 4 7 mph 1016.1mb 58f 62f
1:50pm 7.5ft 8s 8s 7
mph
1016.4mb 58f 62f
12:50pm 7.5ft 10s 8s 4 7 mph 1016.6mb 57f 62f
11:50am 7.5ft 11s 8s 4 7 mph 1016.9mb 57f 62f
10:50am 8ft 11s 8s 4
mph
1017.5mb 57f 62f
9:50am 7.5ft 11s 8s 7 9 mph 1017.1mb 56f 61f
8:50am 7.5ft 9s 8s 7 9 mph 1016.8mb 56f 59f
7:50am 8.5ft 11s 8s 7
mph
1016.4mb 56f 59f
6:50am 8ft 10s 8s 9 11 mph 1016mb 57f 59f
5:50am 8ft 8s 8s 9 11 mph 1015.9mb 57f 58f
4:50am 8ft 11s 8s 9 11 mph 1016mb 57f 58f
3:50am 8ft 11s 7s 9 11 mph 1016.2mb 57f 58f
2:50am 8ft 11s 7s 9 11 mph 1017.1mb 57f 58f
1:50am 8ft 11s 7s 9 11 mph 1017.5mb 56f 59f
12:50am 8ft 11s 7s 16 18 mph 1017.2mb 56f 59f
Sat 09/24 11:50pm 8ft 11s 7s 16 20 mph 1017.5mb 56f 59f
10:50pm 8ft 11s 7s 16 20 mph 1017.5mb 57f 58f
9:50pm 8ft 10s 7s 16 20 mph 1017.4mb 57f 59f
8:50pm 8ft 17s 7s 18 25 mph 1017.3mb 57f 59f
7:50pm 8ft 12s 7s 20 22 mph 1017.1mb 58f 59f
6:50pm 7.5ft 16s 7s 20 25 mph 1017mb 58f 59f
5:50pm 7.5ft 12s 7s 22 27 mph 1017mb 58f 60f
4:50pm 7.5ft 12s 7s 20 25 mph 1017.2mb 59f 60f
3:50pm 7ft 12s 7s 13 18 mph 1017.9mb 59f 60f
2:50pm 6ft 17s 7s 13 16 mph 1018.5mb 59f 60f
1:50pm 6.5ft 10s 8s 16 18 mph 1019.2mb 58f 59f
12:50pm 6ft 17s 8s 16 18 mph 1019.6mb 58f 59f
11:50am 5ft 17s 7s 11 16 mph 1020mb 58f 58f
10:50am 6ft 17s 7s 7 9 mph 1019.8mb 58f 56f
9:50am 5ft 17s 6s 9 13 mph 1019.6mb 57f 57f
8:50am 5ft 17s 6s 13 18 mph 1019.6mb 57f 58f
7:50am 5ft 17s 6s 16 20 mph 1019.2mb 57f 58f
6:50am 5.5ft 17s 6s 18 22 mph 1019.3mb 58f 58f
5:50am 4.5ft 17s 6s 16 20 mph 1019.1mb 58f 58f
4:50am 5ft 17s 7s 13 18 mph 1019.3mb 58f 58f
3:50am 5ft 17s 7s 13 18 mph 1019.4mb 58f 59f
2:50am 5ft 17s 6s 9
mph
1020.2mb 58f 59f
1:50am 4.5ft 17s 6s 7 9 mph 1020.7mb 58f 59f
12:50am 4.5ft 17s 6s 9
mph
1020.8mb 58f 59f
Fri 09/23 11:50pm 5ft 17s 6s 11 13 mph 1020.8mb 58f 59f
10:50pm 5ft 19s 6s 9 11 mph 1020.6mb 58f 59f
9:50pm 5ft 17s 6s 13 16 mph 1020.6mb 58f 59f
8:50pm 5ft 17s 5s 18 22 mph 1020.2mb 58f 59f
7:50pm 5.5ft 17s 5s 18 22 mph 1020.1mb 58f 59f
6:50pm 6ft 19s 5s 20 25 mph 1019.8mb 58f 60f
5:50pm 6ft 7s 5s 20 25 mph 1019.8mb 58f 60f
4:50pm 6.5ft 7s 6s 25 29 mph 1019.7mb 58f 60f
3:50pm 6ft 7s 5s 22 27 mph 1020mb 58f 60f
2:50pm 6ft 7s 5s 22 27 mph 1020.2mb 57f 59f
1:50pm 6.5ft 7s 6s 22 29 mph 1020.8mb 57f 59f
12:50pm 6ft 8s 6s 20 25 mph 1021.1mb 57f 59f
11:50am 6ft 8s 6s 20 22 mph 1021.1mb 57f 58f
10:50am 7ft 8s 6s 18 22 mph 1021.2mb 57f 58f
9:50am 7ft 8s 6s 18 22 mph 1020.9mb 57f 57f
8:50am 7ft 8s 6s 18 22 mph 1020.3mb 57f 57f